Aviation Digital Data Service (ADDS)

Output produced by METARs form (1102 UTC 30 April 2017)
found at http://www.aviationweather.gov/adds/metars/
 
KEWR 300823Z 3008/0112 36011KT P6SM SCT060 
     FM300900 02008KT P6SM BKN060 
     FM301200 04010KT P6SM BKN060 
     FM301400 06011KT P6SM BKN060 
     FM301600 08008KT P6SM BKN060 
     FM301800 10009KT P6SM FEW025 BKN040 
     FM302300 08008KT P6SM SCT015 BKN025 
     FM010100 07008KT P6SM FEW008 BKN015 
     FM010300 06008KT P6SM FEW003 OVC008 
     FM010600 VRB05KT 4SM BR OVC004 
     FM010900 VRB03KT 1SM -DZ BR OVC007